sensor_id;sensor_type;location;lat;lon;timestamp;P1;durP1;ratioP1;P2;durP2;ratioP2
28828;SDS011;15966;51.540;11.870;2023-03-09T00:00:54;15.75;;;12.63;;
28828;SDS011;15966;51.540;11.870;2023-03-09T00:03:20;16.08;;;13.70;;
28828;SDS011;15966;51.540;11.870;2023-03-09T00:05:57;16.58;;;12.77;;
28828;SDS011;15966;51.540;11.870;2023-03-09T00:08:24;14.23;;;12.40;;
28828;SDS011;15966;51.540;11.870;2023-03-09T00:10:52;16.70;;;13.68;;
28828;SDS011;15966;51.540;11.870;2023-03-09T00:13:19;15.63;;;12.57;;
28828;SDS011;15966;51.540;11.870;2023-03-09T00:15:45;16.17;;;12.23;;
28828;SDS011;15966;51.540;11.870;2023-03-09T00:18:15;20.02;;;15.32;;
28828;SDS011;15966;51.540;11.870;2023-03-09T00:20:42;16.17;;;13.18;;
28828;SDS011;15966;51.540;11.870;2023-03-09T00:23:08;16.80;;;12.68;;
28828;SDS011;15966;51.540;11.870;2023-03-09T00:25:36;17.38;;;13.88;;
28828;SDS011;15966;51.540;11.870;2023-03-09T00:28:03;18.42;;;13.73;;
28828;SDS011;15966;51.540;11.870;2023-03-09T00:30:30;20.80;;;15.18;;
28828;SDS011;15966;51.540;11.870;2023-03-09T00:32:56;16.48;;;13.13;;
28828;SDS011;15966;51.540;11.870;2023-03-09T00:35:22;19.35;;;14.75;;
28828;SDS011;15966;51.540;11.870;2023-03-09T00:37:48;20.98;;;14.85;;
28828;SDS011;15966;51.540;11.870;2023-03-09T00:40:14;18.02;;;13.75;;
28828;SDS011;15966;51.540;11.870;2023-03-09T00:42:44;21.17;;;13.73;;
28828;SDS011;15966;51.540;11.870;2023-03-09T00:45:11;21.63;;;13.57;;
28828;SDS011;15966;51.540;11.870;2023-03-09T00:47:38;18.88;;;13.85;;
28828;SDS011;15966;51.540;11.870;2023-03-09T00:50:04;18.90;;;14.23;;
28828;SDS011;15966;51.540;11.870;2023-03-09T00:52:31;15.90;;;12.03;;
28828;SDS011;15966;51.540;11.870;2023-03-09T00:54:57;18.80;;;13.27;;
28828;SDS011;15966;51.540;11.870;2023-03-09T00:57:24;17.55;;;13.15;;
28828;SDS011;15966;51.540;11.870;2023-03-09T00:59:50;17.65;;;13.63;;
28828;SDS011;15966;51.540;11.870;2023-03-09T01:02:17;18.40;;;13.27;;
28828;SDS011;15966;51.540;11.870;2023-03-09T01:04:44;16.53;;;12.57;;
28828;SDS011;15966;51.540;11.870;2023-03-09T01:07:10;18.70;;;14.07;;
28828;SDS011;15966;51.540;11.870;2023-03-09T01:09:37;18.70;;;13.43;;
28828;SDS011;15966;51.540;11.870;2023-03-09T01:12:03;17.80;;;12.60;;
28828;SDS011;15966;51.540;11.870;2023-03-09T01:14:30;18.35;;;11.27;;
28828;SDS011;15966;51.540;11.870;2023-03-09T01:16:56;15.10;;;11.52;;
28828;SDS011;15966;51.540;11.870;2023-03-09T01:19:22;14.82;;;10.88;;
28828;SDS011;15966;51.540;11.870;2023-03-09T01:21:49;16.48;;;11.10;;
28828;SDS011;15966;51.540;11.870;2023-03-09T01:24:15;14.65;;;10.70;;
28828;SDS011;15966;51.540;11.870;2023-03-09T01:26:41;14.98;;;11.65;;
28828;SDS011;15966;51.540;11.870;2023-03-09T01:29:07;12.95;;;10.40;;
28828;SDS011;15966;51.540;11.870;2023-03-09T01:31:33;13.25;;;10.30;;
28828;SDS011;15966;51.540;11.870;2023-03-09T01:33:59;12.77;;;9.48;;
28828;SDS011;15966;51.540;11.870;2023-03-09T01:36:25;14.80;;;12.07;;
28828;SDS011;15966;51.540;11.870;2023-03-09T01:38:51;15.48;;;10.57;;
28828;SDS011;15966;51.540;11.870;2023-03-09T01:41:18;12.65;;;10.40;;
28828;SDS011;15966;51.540;11.870;2023-03-09T01:43:49;13.25;;;11.38;;
28828;SDS011;15966;51.540;11.870;2023-03-09T01:49:12;14.73;;;9.93;;
28828;SDS011;15966;51.540;11.870;2023-03-09T01:51:47;15.10;;;11.68;;
28828;SDS011;15966;51.540;11.870;2023-03-09T01:54:26;13.02;;;11.15;;
28828;SDS011;15966;51.540;11.870;2023-03-09T01:57:05;13.18;;;10.32;;
28828;SDS011;15966;51.540;11.870;2023-03-09T01:59:37;13.27;;;10.20;;
28828;SDS011;15966;51.540;11.870;2023-03-09T02:02:04;12.60;;;10.73;;
28828;SDS011;15966;51.540;11.870;2023-03-09T02:04:33;12.10;;;9.15;;
28828;SDS011;15966;51.540;11.870;2023-03-09T02:07:07;14.15;;;9.65;;
28828;SDS011;15966;51.540;11.870;2023-03-09T02:09:36;12.60;;;10.77;;
28828;SDS011;15966;51.540;11.870;2023-03-09T02:12:08;13.55;;;10.15;;
28828;SDS011;15966;51.540;11.870;2023-03-09T02:14:36;11.48;;;9.20;;
28828;SDS011;15966;51.540;11.870;2023-03-09T02:17:03;12.48;;;9.20;;
28828;SDS011;15966;51.540;11.870;2023-03-09T02:19:36;14.90;;;10.23;;
28828;SDS011;15966;51.540;11.870;2023-03-09T02:22:22;10.88;;;8.30;;
28828;SDS011;15966;51.540;11.870;2023-03-09T02:24:57;11.23;;;9.35;;
28828;SDS011;15966;51.540;11.870;2023-03-09T02:27:34;12.43;;;8.73;;
28828;SDS011;15966;51.540;11.870;2023-03-09T02:30:00;11.07;;;8.88;;
28828;SDS011;15966;51.540;11.870;2023-03-09T02:32:28;11.55;;;8.75;;
28828;SDS011;15966;51.540;11.870;2023-03-09T02:34:55;11.13;;;8.60;;
28828;SDS011;15966;51.540;11.870;2023-03-09T02:37:34;10.43;;;8.25;;
28828;SDS011;15966;51.540;11.870;2023-03-09T02:40:05;13.32;;;9.90;;
28828;SDS011;15966;51.540;11.870;2023-03-09T02:42:35;10.75;;;8.68;;
28828;SDS011;15966;51.540;11.870;2023-03-09T02:45:01;14.18;;;10.48;;
28828;SDS011;15966;51.540;11.870;2023-03-09T02:47:27;12.63;;;10.35;;
28828;SDS011;15966;51.540;11.870;2023-03-09T02:49:53;12.57;;;10.07;;
28828;SDS011;15966;51.540;11.870;2023-03-09T02:52:19;15.27;;;11.30;;
28828;SDS011;15966;51.540;11.870;2023-03-09T02:54:46;12.77;;;10.20;;
28828;SDS011;15966;51.540;11.870;2023-03-09T02:57:12;11.00;;;9.45;;
28828;SDS011;15966;51.540;11.870;2023-03-09T02:59:38;12.40;;;10.20;;
28828;SDS011;15966;51.540;11.870;2023-03-09T03:02:04;14.50;;;10.77;;
28828;SDS011;15966;51.540;11.870;2023-03-09T03:04:31;18.38;;;10.30;;
28828;SDS011;15966;51.540;11.870;2023-03-09T03:06:57;12.48;;;9.45;;
28828;SDS011;15966;51.540;11.870;2023-03-09T03:09:23;12.40;;;10.52;;
28828;SDS011;15966;51.540;11.870;2023-03-09T03:11:49;14.80;;;10.73;;
28828;SDS011;15966;51.540;11.870;2023-03-09T03:14:15;15.48;;;11.07;;
28828;SDS011;15966;51.540;11.870;2023-03-09T03:16:41;12.55;;;10.35;;
28828;SDS011;15966;51.540;11.870;2023-03-09T03:19:07;14.30;;;11.20;;
28828;SDS011;15966;51.540;11.870;2023-03-09T03:21:33;11.63;;;9.00;;
28828;SDS011;15966;51.540;11.870;2023-03-09T03:24:00;13.70;;;10.50;;
28828;SDS011;15966;51.540;11.870;2023-03-09T03:26:26;13.80;;;11.23;;
28828;SDS011;15966;51.540;11.870;2023-03-09T03:28:52;12.93;;;10.82;;
28828;SDS011;15966;51.540;11.870;2023-03-09T03:31:18;13.48;;;11.38;;
28828;SDS011;15966;51.540;11.870;2023-03-09T03:33:44;14.52;;;10.68;;
28828;SDS011;15966;51.540;11.870;2023-03-09T03:36:10;14.07;;;11.10;;
28828;SDS011;15966;51.540;11.870;2023-03-09T03:38:36;12.55;;;11.20;;
28828;SDS011;15966;51.540;11.870;2023-03-09T03:41:02;15.70;;;11.65;;
28828;SDS011;15966;51.540;11.870;2023-03-09T03:43:28;13.57;;;9.73;;
28828;SDS011;15966;51.540;11.870;2023-03-09T03:45:54;13.35;;;11.52;;
28828;SDS011;15966;51.540;11.870;2023-03-09T03:48:20;14.65;;;11.05;;
28828;SDS011;15966;51.540;11.870;2023-03-09T03:50:46;14.73;;;11.35;;
28828;SDS011;15966;51.540;11.870;2023-03-09T03:53:12;12.77;;;10.10;;
28828;SDS011;15966;51.540;11.870;2023-03-09T03:55:38;14.70;;;11.20;;
28828;SDS011;15966;51.540;11.870;2023-03-09T03:58:05;12.05;;;10.45;;
28828;SDS011;15966;51.540;11.870;2023-03-09T04:00:31;13.27;;;10.18;;
28828;SDS011;15966;51.540;11.870;2023-03-09T04:02:57;12.98;;;10.27;;
28828;SDS011;15966;51.540;11.870;2023-03-09T04:05:23;11.93;;;10.63;;
28828;SDS011;15966;51.540;11.870;2023-03-09T04:07:49;11.20;;;8.90;;
28828;SDS011;15966;51.540;11.870;2023-03-09T04:10:16;14.97;;;10.50;;
28828;SDS011;15966;51.540;11.870;2023-03-09T04:12:43;13.93;;;10.50;;
28828;SDS011;15966;51.540;11.870;2023-03-09T04:15:09;11.93;;;9.25;;
28828;SDS011;15966;51.540;11.870;2023-03-09T04:17:35;13.38;;;10.60;;
28828;SDS011;15966;51.540;11.870;2023-03-09T04:20:02;12.63;;;10.00;;
28828;SDS011;15966;51.540;11.870;2023-03-09T04:22:30;11.15;;;9.70;;
28828;SDS011;15966;51.540;11.870;2023-03-09T04:24:56;11.95;;;9.32;;
28828;SDS011;15966;51.540;11.870;2023-03-09T04:27:22;11.10;;;9.18;;
28828;SDS011;15966;51.540;11.870;2023-03-09T04:29:48;11.88;;;8.95;;
28828;SDS011;15966;51.540;11.870;2023-03-09T04:32:14;12.45;;;9.70;;
28828;SDS011;15966;51.540;11.870;2023-03-09T04:34:40;10.38;;;9.27;;
28828;SDS011;15966;51.540;11.870;2023-03-09T04:37:06;11.35;;;9.13;;
28828;SDS011;15966;51.540;11.870;2023-03-09T04:39:32;10.82;;;9.10;;
28828;SDS011;15966;51.540;11.870;2023-03-09T04:41:58;10.00;;;9.00;;
28828;SDS011;15966;51.540;11.870;2023-03-09T04:44:24;11.50;;;10.23;;
28828;SDS011;15966;51.540;11.870;2023-03-09T04:46:50;9.93;;;8.55;;
28828;SDS011;15966;51.540;11.870;2023-03-09T04:49:16;9.73;;;7.93;;
28828;SDS011;15966;51.540;11.870;2023-03-09T04:51:42;11.63;;;9.38;;
28828;SDS011;15966;51.540;11.870;2023-03-09T04:54:09;9.70;;;8.23;;
28828;SDS011;15966;51.540;11.870;2023-03-09T04:56:35;10.57;;;7.72;;
28828;SDS011;15966;51.540;11.870;2023-03-09T04:59:01;11.07;;;9.15;;
28828;SDS011;15966;51.540;11.870;2023-03-09T05:01:27;12.23;;;10.13;;
28828;SDS011;15966;51.540;11.870;2023-03-09T05:03:53;11.95;;;9.50;;
28828;SDS011;15966;51.540;11.870;2023-03-09T05:06:19;11.75;;;10.27;;
28828;SDS011;15966;51.540;11.870;2023-03-09T05:08:45;13.93;;;10.02;;
28828;SDS011;15966;51.540;11.870;2023-03-09T05:11:11;9.82;;;8.50;;
28828;SDS011;15966;51.540;11.870;2023-03-09T05:13:38;12.35;;;9.13;;
28828;SDS011;15966;51.540;11.870;2023-03-09T05:16:04;12.02;;;8.13;;
28828;SDS011;15966;51.540;11.870;2023-03-09T05:18:34;10.23;;;7.97;;
28828;SDS011;15966;51.540;11.870;2023-03-09T05:21:07;12.15;;;8.40;;
28828;SDS011;15966;51.540;11.870;2023-03-09T05:23:34;11.02;;;8.27;;
28828;SDS011;15966;51.540;11.870;2023-03-09T05:26:00;11.05;;;8.02;;
28828;SDS011;15966;51.540;11.870;2023-03-09T05:28:27;11.13;;;8.67;;
28828;SDS011;15966;51.540;11.870;2023-03-09T05:30:55;8.52;;;7.32;;
28828;SDS011;15966;51.540;11.870;2023-03-09T05:33:21;9.25;;;7.05;;
28828;SDS011;15966;51.540;11.870;2023-03-09T05:35:47;11.73;;;6.90;;
28828;SDS011;15966;51.540;11.870;2023-03-09T05:38:15;9.30;;;7.47;;
28828;SDS011;15966;51.540;11.870;2023-03-09T05:40:41;8.55;;;6.43;;
28828;SDS011;15966;51.540;11.870;2023-03-09T05:43:08;8.63;;;5.95;;
28828;SDS011;15966;51.540;11.870;2023-03-09T05:45:35;8.73;;;7.68;;
28828;SDS011;15966;51.540;11.870;2023-03-09T05:48:01;8.75;;;6.72;;
28828;SDS011;15966;51.540;11.870;2023-03-09T05:50:27;9.57;;;7.35;;
28828;SDS011;15966;51.540;11.870;2023-03-09T05:52:53;11.48;;;7.07;;
28828;SDS011;15966;51.540;11.870;2023-03-09T05:55:19;10.68;;;7.20;;
28828;SDS011;15966;51.540;11.870;2023-03-09T05:57:45;10.25;;;8.48;;
28828;SDS011;15966;51.540;11.870;2023-03-09T06:00:11;10.05;;;8.02;;
28828;SDS011;15966;51.540;11.870;2023-03-09T06:02:39;12.55;;;9.45;;
28828;SDS011;15966;51.540;11.870;2023-03-09T06:05:05;12.55;;;9.45;;
28828;SDS011;15966;51.540;11.870;2023-03-09T06:07:32;13.13;;;9.43;;
28828;SDS011;15966;51.540;11.870;2023-03-09T06:09:58;12.93;;;8.93;;
28828;SDS011;15966;51.540;11.870;2023-03-09T06:12:24;11.40;;;8.40;;
28828;SDS011;15966;51.540;11.870;2023-03-09T06:14:50;11.80;;;9.65;;
28828;SDS011;15966;51.540;11.870;2023-03-09T06:17:17;15.57;;;11.27;;
28828;SDS011;15966;51.540;11.870;2023-03-09T06:19:43;13.20;;;10.40;;
28828;SDS011;15966;51.540;11.870;2023-03-09T06:22:09;14.50;;;11.02;;
28828;SDS011;15966;51.540;11.870;2023-03-09T06:24:36;11.95;;;9.60;;
28828;SDS011;15966;51.540;11.870;2023-03-09T06:27:02;14.80;;;10.70;;
28828;SDS011;15966;51.540;11.870;2023-03-09T06:29:28;14.93;;;10.70;;
28828;SDS011;15966;51.540;11.870;2023-03-09T06:31:55;13.85;;;10.48;;
28828;SDS011;15966;51.540;11.870;2023-03-09T06:34:21;12.27;;;9.98;;
28828;SDS011;15966;51.540;11.870;2023-03-09T06:36:47;12.93;;;9.45;;
28828;SDS011;15966;51.540;11.870;2023-03-09T06:39:13;18.23;;;12.50;;
28828;SDS011;15966;51.540;11.870;2023-03-09T06:41:39;14.02;;;11.45;;
28828;SDS011;15966;51.540;11.870;2023-03-09T06:44:05;13.82;;;11.40;;
28828;SDS011;15966;51.540;11.870;2023-03-09T06:46:31;17.27;;;12.43;;
28828;SDS011;15966;51.540;11.870;2023-03-09T06:48:57;13.90;;;10.68;;
28828;SDS011;15966;51.540;11.870;2023-03-09T06:51:23;17.02;;;11.05;;
28828;SDS011;15966;51.540;11.870;2023-03-09T06:53:50;13.75;;;9.73;;
28828;SDS011;15966;51.540;11.870;2023-03-09T06:56:16;13.02;;;10.23;;
28828;SDS011;15966;51.540;11.870;2023-03-09T06:58:42;14.75;;;9.07;;
28828;SDS011;15966;51.540;11.870;2023-03-09T07:01:08;11.82;;;9.18;;
28828;SDS011;15966;51.540;11.870;2023-03-09T07:03:36;12.73;;;9.38;;
28828;SDS011;15966;51.540;11.870;2023-03-09T07:06:02;10.95;;;9.35;;
28828;SDS011;15966;51.540;11.870;2023-03-09T07:08:28;10.77;;;7.88;;
28828;SDS011;15966;51.540;11.870;2023-03-09T07:10:55;13.38;;;9.88;;
28828;SDS011;15966;51.540;11.870;2023-03-09T07:13:21;10.48;;;8.85;;
28828;SDS011;15966;51.540;11.870;2023-03-09T07:15:48;10.90;;;9.70;;
28828;SDS011;15966;51.540;11.870;2023-03-09T07:18:14;11.18;;;9.82;;
28828;SDS011;15966;51.540;11.870;2023-03-09T07:20:40;8.93;;;7.85;;
28828;SDS011;15966;51.540;11.870;2023-03-09T07:23:07;11.00;;;9.75;;
28828;SDS011;15966;51.540;11.870;2023-03-09T07:25:33;12.55;;;9.18;;
28828;SDS011;15966;51.540;11.870;2023-03-09T07:28:01;12.07;;;9.27;;
28828;SDS011;15966;51.540;11.870;2023-03-09T07:30:28;9.25;;;7.90;;
28828;SDS011;15966;51.540;11.870;2023-03-09T07:32:58;11.02;;;9.13;;
28828;SDS011;15966;51.540;11.870;2023-03-09T07:35:25;10.88;;;9.40;;
28828;SDS011;15966;51.540;11.870;2023-03-09T07:37:52;11.80;;;9.70;;
28828;SDS011;15966;51.540;11.870;2023-03-09T07:40:19;13.25;;;10.05;;
28828;SDS011;15966;51.540;11.870;2023-03-09T07:42:51;10.23;;;8.93;;
28828;SDS011;15966;51.540;11.870;2023-03-09T07:45:17;12.10;;;9.68;;
28828;SDS011;15966;51.540;11.870;2023-03-09T07:47:45;13.75;;;9.52;;
28828;SDS011;15966;51.540;11.870;2023-03-09T07:50:11;9.73;;;8.73;;
28828;SDS011;15966;51.540;11.870;2023-03-09T07:52:37;10.25;;;8.88;;
28828;SDS011;15966;51.540;11.870;2023-03-09T07:55:03;11.35;;;8.60;;
28828;SDS011;15966;51.540;11.870;2023-03-09T07:57:33;11.13;;;9.10;;
28828;SDS011;15966;51.540;11.870;2023-03-09T07:59:59;11.45;;;9.35;;
28828;SDS011;15966;51.540;11.870;2023-03-09T08:02:25;10.73;;;9.60;;
28828;SDS011;15966;51.540;11.870;2023-03-09T08:04:52;12.23;;;10.52;;
28828;SDS011;15966;51.540;11.870;2023-03-09T08:07:18;13.60;;;10.18;;
28828;SDS011;15966;51.540;11.870;2023-03-09T08:09:44;10.35;;;9.25;;
28828;SDS011;15966;51.540;11.870;2023-03-09T08:12:10;12.65;;;10.05;;
28828;SDS011;15966;51.540;11.870;2023-03-09T08:14:36;11.40;;;9.70;;
28828;SDS011;15966;51.540;11.870;2023-03-09T08:17:03;12.70;;;10.15;;
28828;SDS011;15966;51.540;11.870;2023-03-09T08:19:29;10.35;;;9.27;;
28828;SDS011;15966;51.540;11.870;2023-03-09T08:21:55;12.77;;;10.80;;
28828;SDS011;15966;51.540;11.870;2023-03-09T08:24:21;12.50;;;11.20;;
28828;SDS011;15966;51.540;11.870;2023-03-09T08:26:48;14.48;;;11.23;;
28828;SDS011;15966;51.540;11.870;2023-03-09T08:29:14;14.13;;;10.90;;
28828;SDS011;15966;51.540;11.870;2023-03-09T08:31:40;15.70;;;12.55;;
28828;SDS011;15966;51.540;11.870;2023-03-09T08:34:06;14.68;;;11.57;;
28828;SDS011;15966;51.540;11.870;2023-03-09T08:36:32;13.15;;;11.85;;
28828;SDS011;15966;51.540;11.870;2023-03-09T08:38:59;16.40;;;12.10;;
28828;SDS011;15966;51.540;11.870;2023-03-09T08:41:25;12.85;;;11.02;;
28828;SDS011;15966;51.540;11.870;2023-03-09T08:43:51;14.25;;;11.07;;
28828;SDS011;15966;51.540;11.870;2023-03-09T08:46:19;17.25;;;13.90;;
28828;SDS011;15966;51.540;11.870;2023-03-09T08:48:46;16.58;;;12.90;;
28828;SDS011;15966;51.540;11.870;2023-03-09T08:51:15;13.45;;;11.77;;
28828;SDS011;15966;51.540;11.870;2023-03-09T08:53:42;15.00;;;11.23;;
28828;SDS011;15966;51.540;11.870;2023-03-09T08:56:09;14.68;;;11.98;;
28828;SDS011;15966;51.540;11.870;2023-03-09T08:58:36;11.90;;;10.57;;
28828;SDS011;15966;51.540;11.870;2023-03-09T09:01:03;11.68;;;10.40;;
28828;SDS011;15966;51.540;11.870;2023-03-09T09:06:01;11.75;;;10.07;;
28828;SDS011;15966;51.540;11.870;2023-03-09T09:08:32;12.82;;;10.93;;
28828;SDS011;15966;51.540;11.870;2023-03-09T09:10:58;14.45;;;11.77;;
28828;SDS011;15966;51.540;11.870;2023-03-09T09:13:24;13.13;;;10.70;;
28828;SDS011;15966;51.540;11.870;2023-03-09T09:15:53;11.98;;;10.60;;
28828;SDS011;15966;51.540;11.870;2023-03-09T09:18:20;13.45;;;10.25;;
28828;SDS011;15966;51.540;11.870;2023-03-09T09:20:47;14.00;;;12.25;;
28828;SDS011;15966;51.540;11.870;2023-03-09T09:23:13;12.95;;;11.05;;
28828;SDS011;15966;51.540;11.870;2023-03-09T09:25:39;15.48;;;12.68;;
28828;SDS011;15966;51.540;11.870;2023-03-09T09:28:05;14.30;;;11.63;;
28828;SDS011;15966;51.540;11.870;2023-03-09T09:30:32;14.35;;;11.40;;
28828;SDS011;15966;51.540;11.870;2023-03-09T09:32:58;13.35;;;11.60;;
28828;SDS011;15966;51.540;11.870;2023-03-09T09:35:25;16.03;;;11.40;;
28828;SDS011;15966;51.540;11.870;2023-03-09T09:37:51;15.77;;;12.10;;
28828;SDS011;15966;51.540;11.870;2023-03-09T09:40:19;14.27;;;11.82;;
28828;SDS011;15966;51.540;11.870;2023-03-09T09:42:46;16.58;;;12.88;;
28828;SDS011;15966;51.540;11.870;2023-03-09T09:45:32;15.38;;;12.30;;
28828;SDS011;15966;51.540;11.870;2023-03-09T09:48:00;16.17;;;13.63;;
28828;SDS011;15966;51.540;11.870;2023-03-09T09:56:16;14.77;;;12.20;;
28828;SDS011;15966;51.540;11.870;2023-03-09T09:58:46;14.52;;;10.88;;
28828;SDS011;15966;51.540;11.870;2023-03-09T10:01:21;13.65;;;12.25;;
28828;SDS011;15966;51.540;11.870;2023-03-09T10:03:51;17.67;;;11.50;;
28828;SDS011;15966;51.540;11.870;2023-03-09T10:11:30;13.57;;;11.18;;
28828;SDS011;15966;51.540;11.870;2023-03-09T10:14:36;16.35;;;13.07;;
28828;SDS011;15966;51.540;11.870;2023-03-09T10:19:32;15.33;;;11.50;;
28828;SDS011;15966;51.540;11.870;2023-03-09T10:22:01;13.45;;;10.60;;
28828;SDS011;15966;51.540;11.870;2023-03-09T10:29:50;12.80;;;10.52;;
28828;SDS011;15966;51.540;11.870;2023-03-09T10:32:31;14.15;;;12.02;;
28828;SDS011;15966;51.540;11.870;2023-03-09T10:38:06;14.90;;;11.85;;
28828;SDS011;15966;51.540;11.870;2023-03-09T10:40:48;15.18;;;12.90;;
28828;SDS011;15966;51.540;11.870;2023-03-09T10:43:29;14.02;;;12.18;;
28828;SDS011;15966;51.540;11.870;2023-03-09T10:48:46;16.03;;;11.17;;
28828;SDS011;15966;51.540;11.870;2023-03-09T10:53:48;14.82;;;11.95;;
28828;SDS011;15966;51.540;11.870;2023-03-09T10:56:21;15.00;;;12.43;;
28828;SDS011;15966;51.540;11.870;2023-03-09T11:01:37;14.75;;;11.98;;
28828;SDS011;15966;51.540;11.870;2023-03-09T11:04:25;14.85;;;12.82;;
28828;SDS011;15966;51.540;11.870;2023-03-09T11:07:00;14.32;;;12.00;;
28828;SDS011;15966;51.540;11.870;2023-03-09T11:12:07;15.57;;;12.40;;
28828;SDS011;15966;51.540;11.870;2023-03-09T11:14:58;14.38;;;11.77;;
28828;SDS011;15966;51.540;11.870;2023-03-09T11:17:27;15.18;;;12.63;;
28828;SDS011;15966;51.540;11.870;2023-03-09T11:20:37;16.65;;;12.82;;
28828;SDS011;15966;51.540;11.870;2023-03-09T11:30:44;16.23;;;13.07;;
28828;SDS011;15966;51.540;11.870;2023-03-09T11:33:12;14.20;;;12.07;;
28828;SDS011;15966;51.540;11.870;2023-03-09T11:35:42;16.73;;;14.07;;
28828;SDS011;15966;51.540;11.870;2023-03-09T11:38:11;15.55;;;12.38;;
28828;SDS011;15966;51.540;11.870;2023-03-09T11:40:39;15.70;;;12.55;;
28828;SDS011;15966;51.540;11.870;2023-03-09T11:45:41;15.38;;;13.38;;
28828;SDS011;15966;51.540;11.870;2023-03-09T11:48:15;14.70;;;11.32;;
28828;SDS011;15966;51.540;11.870;2023-03-09T11:50:58;14.30;;;12.52;;
28828;SDS011;15966;51.540;11.870;2023-03-09T11:55:58;14.15;;;12.60;;
28828;SDS011;15966;51.540;11.870;2023-03-09T11:58:36;16.92;;;12.07;;
28828;SDS011;15966;51.540;11.870;2023-03-09T12:01:15;16.88;;;13.75;;
28828;SDS011;15966;51.540;11.870;2023-03-09T12:03:49;12.68;;;11.38;;
28828;SDS011;15966;51.540;11.870;2023-03-09T12:06:32;12.80;;;10.48;;
28828;SDS011;15966;51.540;11.870;2023-03-09T12:12:44;11.32;;;9.93;;
28828;SDS011;15966;51.540;11.870;2023-03-09T12:15:21;13.33;;;11.97;;
28828;SDS011;15966;51.540;11.870;2023-03-09T12:18:18;14.40;;;11.32;;
28828;SDS011;15966;51.540;11.870;2023-03-09T12:20:51;12.02;;;10.18;;
28828;SDS011;15966;51.540;11.870;2023-03-09T12:26:01;12.85;;;10.63;;
28828;SDS011;15966;51.540;11.870;2023-03-09T12:28:29;16.55;;;12.50;;
28828;SDS011;15966;51.540;11.870;2023-03-09T12:30:56;16.90;;;12.32;;
28828;SDS011;15966;51.540;11.870;2023-03-09T12:36:25;13.68;;;11.93;;
28828;SDS011;15966;51.540;11.870;2023-03-09T12:42:03;19.85;;;13.93;;
28828;SDS011;15966;51.540;11.870;2023-03-09T12:45:03;14.82;;;12.70;;
28828;SDS011;15966;51.540;11.870;2023-03-09T12:47:44;13.85;;;12.13;;
28828;SDS011;15966;51.540;11.870;2023-03-09T12:50:25;15.02;;;13.02;;
28828;SDS011;15966;51.540;11.870;2023-03-09T13:03:27;16.60;;;14.07;;
28828;SDS011;15966;51.540;11.870;2023-03-09T13:05:56;16.05;;;13.25;;
28828;SDS011;15966;51.540;11.870;2023-03-09T13:08:35;14.63;;;12.35;;
28828;SDS011;15966;51.540;11.870;2023-03-09T13:13:59;15.30;;;12.00;;
28828;SDS011;15966;51.540;11.870;2023-03-09T13:21:40;15.90;;;11.82;;
28828;SDS011;15966;51.540;11.870;2023-03-09T13:24:11;17.30;;;12.95;;
28828;SDS011;15966;51.540;11.870;2023-03-09T13:26:42;16.25;;;12.07;;
28828;SDS011;15966;51.540;11.870;2023-03-09T13:29:09;14.07;;;11.93;;
28828;SDS011;15966;51.540;11.870;2023-03-09T13:31:39;12.00;;;10.32;;
28828;SDS011;15966;51.540;11.870;2023-03-09T13:34:10;14.32;;;10.75;;
28828;SDS011;15966;51.540;11.870;2023-03-09T13:36:40;13.88;;;11.88;;
28828;SDS011;15966;51.540;11.870;2023-03-09T13:39:07;12.23;;;10.67;;
28828;SDS011;15966;51.540;11.870;2023-03-09T13:41:42;13.55;;;10.88;;
28828;SDS011;15966;51.540;11.870;2023-03-09T13:44:15;16.17;;;13.20;;
28828;SDS011;15966;51.540;11.870;2023-03-09T13:46:46;17.35;;;13.77;;
28828;SDS011;15966;51.540;11.870;2023-03-09T13:49:28;14.80;;;12.35;;
28828;SDS011;15966;51.540;11.870;2023-03-09T13:52:02;15.80;;;13.00;;
28828;SDS011;15966;51.540;11.870;2023-03-09T13:54:31;16.02;;;11.75;;
28828;SDS011;15966;51.540;11.870;2023-03-09T13:57:03;14.25;;;11.80;;
28828;SDS011;15966;51.540;11.870;2023-03-09T13:59:59;14.40;;;11.80;;
28828;SDS011;15966;51.540;11.870;2023-03-09T14:02:26;14.75;;;11.88;;
28828;SDS011;15966;51.540;11.870;2023-03-09T14:07:27;15.02;;;12.40;;
28828;SDS011;15966;51.540;11.870;2023-03-09T14:10:03;15.40;;;12.27;;
28828;SDS011;15966;51.540;11.870;2023-03-09T14:12:33;13.38;;;11.68;;
28828;SDS011;15966;51.540;11.870;2023-03-09T14:15:02;15.93;;;12.52;;
28828;SDS011;15966;51.540;11.870;2023-03-09T14:17:31;16.88;;;13.75;;
28828;SDS011;15966;51.540;11.870;2023-03-09T14:22:28;15.95;;;13.80;;
28828;SDS011;15966;51.540;11.870;2023-03-09T14:24:56;15.90;;;12.35;;
28828;SDS011;15966;51.540;11.870;2023-03-09T14:27:30;18.77;;;12.93;;
28828;SDS011;15966;51.540;11.870;2023-03-09T14:29:58;14.85;;;13.23;;
28828;SDS011;15966;51.540;11.870;2023-03-09T14:35:32;16.13;;;13.27;;
28828;SDS011;15966;51.540;11.870;2023-03-09T14:38:02;15.57;;;12.95;;
28828;SDS011;15966;51.540;11.870;2023-03-09T14:40:48;16.80;;;13.15;;
28828;SDS011;15966;51.540;11.870;2023-03-09T14:45:50;16.15;;;12.85;;
28828;SDS011;15966;51.540;11.870;2023-03-09T14:48:16;15.52;;;11.50;;
28828;SDS011;15966;51.540;11.870;2023-03-09T14:50:42;14.70;;;12.95;;
28828;SDS011;15966;51.540;11.870;2023-03-09T14:53:11;16.23;;;12.85;;
28828;SDS011;15966;51.540;11.870;2023-03-09T14:55:39;16.85;;;11.95;;
28828;SDS011;15966;51.540;11.870;2023-03-09T14:58:11;16.05;;;12.93;;
28828;SDS011;15966;51.540;11.870;2023-03-09T15:00:38;16.35;;;13.38;;
28828;SDS011;15966;51.540;11.870;2023-03-09T15:03:05;16.60;;;12.75;;
28828;SDS011;15966;51.540;11.870;2023-03-09T15:05:31;15.07;;;13.27;;
28828;SDS011;15966;51.540;11.870;2023-03-09T15:07:57;15.18;;;12.45;;
28828;SDS011;15966;51.540;11.870;2023-03-09T15:10:23;17.48;;;13.45;;
28828;SDS011;15966;51.540;11.870;2023-03-09T15:12:50;17.77;;;13.73;;
28828;SDS011;15966;51.540;11.870;2023-03-09T15:15:24;16.15;;;13.23;;
28828;SDS011;15966;51.540;11.870;2023-03-09T15:17:51;18.55;;;14.40;;
28828;SDS011;15966;51.540;11.870;2023-03-09T15:20:18;18.63;;;15.70;;
28828;SDS011;15966;51.540;11.870;2023-03-09T15:22:45;20.55;;;16.10;;
28828;SDS011;15966;51.540;11.870;2023-03-09T15:25:13;20.60;;;14.70;;
28828;SDS011;15966;51.540;11.870;2023-03-09T15:27:41;17.10;;;14.57;;
28828;SDS011;15966;51.540;11.870;2023-03-09T15:30:09;27.48;;;17.80;;
28828;SDS011;15966;51.540;11.870;2023-03-09T15:32:42;19.05;;;15.05;;
28828;SDS011;15966;51.540;11.870;2023-03-09T15:35:10;19.77;;;16.45;;
28828;SDS011;15966;51.540;11.870;2023-03-09T15:37:38;21.75;;;16.45;;
28828;SDS011;15966;51.540;11.870;2023-03-09T15:40:04;22.65;;;16.77;;
28828;SDS011;15966;51.540;11.870;2023-03-09T15:42:31;22.98;;;17.52;;
28828;SDS011;15966;51.540;11.870;2023-03-09T15:44:58;26.40;;;17.23;;
28828;SDS011;15966;51.540;11.870;2023-03-09T15:47:24;19.38;;;15.48;;
28828;SDS011;15966;51.540;11.870;2023-03-09T15:49:50;19.35;;;14.73;;
28828;SDS011;15966;51.540;11.870;2023-03-09T15:52:16;25.00;;;18.17;;
28828;SDS011;15966;51.540;11.870;2023-03-09T15:54:42;23.95;;;15.93;;